createdAt,value
2016-07-29T00:00:13.331Z,68.73
2016-07-29T00:01:24.368Z,68.75
2016-07-29T00:02:12.992Z,68.79
2016-07-29T00:03:13.965Z,68.80
2016-07-29T00:04:27.348Z,68.83
2016-07-29T00:05:31.028Z,68.81
2016-07-29T00:06:13.449Z,68.80
2016-07-29T00:07:26.995Z,68.82
2016-07-29T00:08:13.052Z,68.71
2016-07-29T00:09:19.478Z,68.68
2016-07-29T00:10:37.629Z,68.67
2016-07-29T00:11:33.974Z,68.68
2016-07-29T00:12:26.761Z,68.64
2016-07-29T00:13:37.451Z,68.64
2016-07-29T00:14:12.902Z,68.56
2016-07-29T00:15:33.123Z,68.60
2016-07-29T00:16:40.054Z,68.56
2016-07-29T00:17:15.538Z,68.71
2016-07-29T00:18:34.122Z,68.58
2016-07-29T00:19:27.006Z,68.63
2016-07-29T00:20:37.269Z,68.67
2016-07-29T00:21:14.402Z,68.54
2016-07-29T00:22:33.587Z,68.52
2016-07-29T00:23:24.525Z,68.51
2016-07-29T00:24:12.474Z,68.51
2016-07-29T00:25:13.204Z,68.54
2016-07-29T00:26:12.770Z,68.44
2016-07-29T00:27:14.115Z,68.42
2016-07-29T00:28:13.142Z,68.43
2016-07-29T00:29:12.097Z,68.41
2016-07-29T00:30:28.625Z,68.37
2016-07-29T00:31:22.489Z,68.37
2016-07-29T00:32:21.675Z,68.33
2016-07-29T00:33:22.180Z,68.31
2016-07-29T00:34:35.425Z,68.43
2016-07-29T00:35:39.096Z,68.43
2016-07-29T00:36:34.062Z,68.41
2016-07-29T00:37:28.186Z,68.40
2016-07-29T00:38:33.657Z,68.37
2016-07-29T00:39:34.351Z,68.34
2016-07-29T00:40:21.259Z,68.33
2016-07-29T00:41:39.988Z,68.39
2016-07-29T00:42:26.017Z,68.40
2016-07-29T00:43:15.100Z,68.56
2016-07-29T00:44:12.641Z,68.58
2016-07-29T00:45:38.357Z,68.54
2016-07-29T00:46:43.530Z,68.53
2016-07-29T00:47:12.867Z,68.47
2016-07-29T00:48:33.936Z,68.42
2016-07-29T00:49:24.984Z,68.40
2016-07-29T00:50:36.480Z,68.39
2016-07-29T00:51:13.316Z,68.40
2016-07-29T00:52:39.315Z,68.48
2016-07-29T00:53:14.924Z,68.30
2016-07-29T00:54:36.962Z,68.30
2016-07-29T00:55:12.775Z,68.27
2016-07-29T00:56:19.755Z,68.26
2016-07-29T00:57:38.363Z,68.21
2016-07-29T00:58:13.094Z,68.19
2016-07-29T00:59:29.057Z,68.21
2016-07-29T01:00:38.816Z,67.08
2016-07-29T01:01:39.677Z,66.89
2016-07-29T01:02:14.075Z,67.80
2016-07-29T01:03:27.175Z,67.89
2016-07-29T01:04:40.168Z,67.97
2016-07-29T01:05:41.550Z,68.00
2016-07-29T01:06:28.936Z,68.02
2016-07-29T01:07:42.202Z,68.10
2016-07-29T01:08:26.451Z,68.04
2016-07-29T01:09:15.937Z,68.15
2016-07-29T01:10:28.014Z,68.18
2016-07-29T01:11:32.302Z,68.22
2016-07-29T01:12:14.964Z,68.21
2016-07-29T01:13:32.191Z,68.20
2016-07-29T01:14:32.349Z,68.16
2016-07-29T01:15:42.060Z,68.13
2016-07-29T01:16:12.018Z,68.11
2016-07-29T01:17:14.143Z,68.09
2016-07-29T01:18:12.147Z,68.12
2016-07-29T01:19:14.955Z,68.06
2016-07-29T01:20:15.421Z,68.52
2016-07-29T01:21:13.301Z,68.55
2016-07-29T01:22:14.210Z,68.50
2016-07-29T01:23:11.705Z,68.09
2016-07-29T01:24:14.627Z,67.09
2016-07-29T01:25:16.065Z,66.86
2016-07-29T01:26:15.731Z,66.47
2016-07-29T01:27:42.709Z,67.22
2016-07-29T01:28:36.142Z,67.80
2016-07-29T01:29:13.218Z,68.24
2016-07-29T01:30:16.291Z,68.49
2016-07-29T01:31:37.632Z,68.68
2016-07-29T01:32:25.160Z,68.70
2016-07-29T01:33:14.988Z,68.74
2016-07-29T01:34:34.186Z,68.77
2016-07-29T01:35:33.547Z,68.78
2016-07-29T01:36:16.213Z,68.78
2016-07-29T01:37:31.242Z,68.81
2016-07-29T01:38:26.163Z,68.82
2016-07-29T01:39:14.885Z,68.80
2016-07-29T01:40:19.258Z,68.80
2016-07-29T01:41:21.762Z,68.79
2016-07-29T01:42:22.531Z,68.78
2016-07-29T01:43:33.506Z,68.76
2016-07-29T01:44:13.963Z,68.77
2016-07-29T01:45:28.449Z,68.77
2016-07-29T01:46:15.400Z,68.78
2016-07-29T01:47:34.911Z,67.78
2016-07-29T01:48:22.332Z,68.54
2016-07-29T01:49:27.212Z,68.64
2016-07-29T01:50:19.882Z,68.68
2016-07-29T01:51:45.986Z,68.72
2016-07-29T01:52:12.949Z,68.75
2016-07-29T01:53:13.523Z,68.74
2016-07-29T01:54:40.322Z,68.72
2016-07-29T01:55:14.495Z,68.60
2016-07-29T01:56:20.085Z,65.90
2016-07-29T01:57:14.427Z,65.55
2016-07-29T01:58:13.750Z,65.16
2016-07-29T01:59:41.717Z,65.68
2016-07-29T02:00:23.354Z,65.96
2016-07-29T02:01:29.087Z,66.17
2016-07-29T02:03:44.679Z,66.05
2016-07-29T02:04:35.349Z,66.30
2016-07-29T02:05:48.001Z,66.31
2016-07-29T02:06:25.274Z,66.25
2016-07-29T02:07:42.723Z,66.18
2016-07-29T02:08:37.449Z,66.32
2016-07-29T02:09:37.443Z,66.15
2016-07-29T02:10:40.338Z,66.59
2016-07-29T02:11:32.087Z,66.74
2016-07-29T02:12:43.793Z,66.86
2016-07-29T02:13:14.735Z,67.21
2016-07-29T02:14:39.094Z,66.80
2016-07-29T02:15:40.086Z,66.83
2016-07-29T02:16:38.379Z,66.92
2016-07-29T02:17:36.792Z,66.87
2016-07-29T02:18:33.650Z,66.92
2016-07-29T02:19:40.243Z,66.92
2016-07-29T02:20:14.216Z,67.09
2016-07-29T02:21:38.555Z,67.24
2016-07-29T02:22:33.729Z,67.29
2016-07-29T02:23:33.824Z,67.24
2016-07-29T02:24:40.484Z,67.13
2016-07-29T02:25:33.250Z,67.03
2016-07-29T02:26:34.251Z,67.20
2016-07-29T02:27:32.648Z,67.32
2016-07-29T02:28:27.685Z,67.42
2016-07-29T02:29:34.218Z,67.41
2016-07-29T02:30:33.712Z,67.52
2016-07-29T02:31:40.018Z,67.58
2016-07-29T02:32:31.455Z,67.74
2016-07-29T02:33:33.644Z,67.64
2016-07-29T02:34:40.220Z,67.77
2016-07-29T02:35:44.029Z,68.21
2016-07-29T02:36:28.278Z,67.98
2016-07-29T02:37:43.653Z,67.89
2016-07-29T02:38:37.303Z,67.89
2016-07-29T02:39:45.018Z,67.93
2016-07-29T02:40:32.275Z,67.89
2016-07-29T02:41:30.038Z,68.06
2016-07-29T02:42:12.288Z,68.01
2016-07-29T02:43:41.995Z,66.97
2016-07-29T02:44:38.946Z,66.82
2016-07-29T02:45:42.655Z,67.76
2016-07-29T02:46:39.215Z,67.98
2016-07-29T02:47:38.887Z,68.09
2016-07-29T02:48:32.515Z,68.29
2016-07-29T02:49:40.112Z,68.23
2016-07-29T02:50:31.429Z,68.13
2016-07-29T02:51:33.853Z,68.22
2016-07-29T02:52:34.255Z,68.18
2016-07-29T02:53:38.037Z,68.17
2016-07-29T02:54:34.013Z,67.48
2016-07-29T02:55:38.065Z,68.08
2016-07-29T02:56:35.525Z,68.16
2016-07-29T02:57:31.239Z,68.24
2016-07-29T02:58:37.345Z,68.29
2016-07-29T02:59:32.568Z,68.30
2016-07-29T03:00:13.914Z,68.25
2016-07-29T03:01:38.199Z,68.36
2016-07-29T03:02:39.999Z,68.32
2016-07-29T03:03:46.390Z,68.25
2016-07-29T03:04:41.860Z,68.27
2016-07-29T03:05:35.948Z,68.21
2016-07-29T03:06:39.352Z,68.34
2016-07-29T03:07:48.014Z,68.40
2016-07-29T03:08:24.363Z,68.55
2016-07-29T03:09:31.966Z,68.60
2016-07-29T03:10:19.987Z,68.46
2016-07-29T03:11:33.134Z,68.50
2016-07-29T03:12:39.684Z,68.58
2016-07-29T03:13:49.318Z,68.50
2016-07-29T03:14:37.845Z,68.50
2016-07-29T03:15:31.281Z,68.53
2016-07-29T03:16:32.189Z,68.55
2016-07-29T03:17:42.795Z,68.72
2016-07-29T03:18:44.135Z,68.83
2016-07-29T03:19:34.684Z,67.76
2016-07-29T03:20:26.170Z,67.53
2016-07-29T03:21:34.588Z,67.52
2016-07-29T03:22:37.902Z,67.52
2016-07-29T03:23:34.208Z,68.49
2016-07-29T03:24:33.214Z,68.72
2016-07-29T03:25:29.294Z,68.97
2016-07-29T03:26:23.198Z,69.12
2016-07-29T03:27:37.592Z,69.01
2016-07-29T03:28:40.785Z,69.12
2016-07-29T03:29:31.470Z,69.30
2016-07-29T03:30:32.441Z,69.30
2016-07-29T03:31:33.533Z,69.20
2016-07-29T03:32:17.864Z,69.19
2016-07-29T03:33:28.794Z,69.09
2016-07-29T03:34:24.679Z,69.14
2016-07-29T03:35:26.179Z,69.22
2016-07-29T03:36:43.752Z,69.19
2016-07-29T03:37:36.552Z,69.20
2016-07-29T03:38:30.553Z,69.08
2016-07-29T03:39:34.052Z,69.15
2016-07-29T03:40:36.299Z,69.12
2016-07-29T03:41:33.857Z,69.10
2016-07-29T03:42:34.180Z,69.26
2016-07-29T03:43:39.521Z,69.42
2016-07-29T03:44:37.373Z,69.44
2016-07-29T03:45:37.492Z,69.55
2016-07-29T03:46:39.630Z,69.75
2016-07-29T03:48:32.137Z,69.66
2016-07-29T03:49:43.789Z,69.65
2016-07-29T03:50:33.707Z,69.69
2016-07-29T03:51:38.480Z,69.67
2016-07-29T03:52:29.003Z,69.74
2016-07-29T03:53:36.613Z,69.69
2016-07-29T03:54:38.133Z,69.65
2016-07-29T03:55:43.561Z,69.74
2016-07-29T03:56:40.599Z,69.85
2016-07-29T03:57:38.248Z,69.50
2016-07-29T03:58:36.361Z,68.75
2016-07-29T03:59:31.713Z,68.64
2016-07-29T04:00:33.404Z,68.53
2016-07-29T04:01:38.363Z,68.56
2016-07-29T04:03:43.819Z,68.68
2016-07-29T04:04:40.450Z,68.68
2016-07-29T04:05:34.518Z,69.85
2016-07-29T04:06:22.535Z,70.04
2016-07-29T04:07:45.064Z,70.20
2016-07-29T04:08:36.970Z,70.18
2016-07-29T04:09:44.099Z,70.09
2016-07-29T04:10:42.955Z,70.13
2016-07-29T04:11:42.509Z,70.12
2016-07-29T04:12:28.312Z,70.25
2016-07-29T04:13:39.796Z,70.40
2016-07-29T04:14:32.590Z,70.42
2016-07-29T04:15:39.072Z,70.49
2016-07-29T04:16:33.318Z,70.53
2016-07-29T04:17:38.825Z,70.38
2016-07-29T04:18:34.258Z,70.38
2016-07-29T04:19:33.643Z,70.39
2016-07-29T04:20:37.163Z,70.45
2016-07-29T04:21:33.000Z,70.53
2016-07-29T04:22:27.913Z,70.44
2016-07-29T04:23:14.340Z,70.44
2016-07-29T04:24:24.721Z,70.54
2016-07-29T04:25:20.766Z,70.70
2016-07-29T04:26:26.819Z,70.63
2016-07-29T04:27:32.011Z,70.73
2016-07-29T04:28:43.197Z,70.59
2016-07-29T04:29:32.640Z,70.46
2016-07-29T04:30:39.163Z,70.58
2016-07-29T04:31:31.536Z,70.49
2016-07-29T04:32:32.485Z,70.41
2016-07-29T04:33:39.180Z,70.49
2016-07-29T04:34:39.122Z,70.44
2016-07-29T04:35:33.298Z,70.21
2016-07-29T04:36:38.036Z,70.09
2016-07-29T04:37:28.004Z,69.99
2016-07-29T04:38:37.907Z,70.21
2016-07-29T04:39:33.027Z,70.11
2016-07-29T04:40:37.143Z,70.14
2016-07-29T04:41:36.714Z,69.84
2016-07-29T04:42:27.860Z,70.22
2016-07-29T04:43:27.268Z,70.32
2016-07-29T04:44:33.690Z,70.38
2016-07-29T04:45:34.452Z,70.31
2016-07-29T04:46:33.189Z,70.32
2016-07-29T04:47:38.865Z,70.35
2016-07-29T04:48:40.850Z,70.27
2016-07-29T04:49:33.553Z,70.21
2016-07-29T04:50:32.959Z,70.40
2016-07-29T04:51:32.832Z,70.53
2016-07-29T04:52:32.240Z,70.36
2016-07-29T04:53:26.672Z,70.33
2016-07-29T04:54:25.798Z,70.65
2016-07-29T04:55:25.119Z,70.64
2016-07-29T04:56:26.478Z,70.61
2016-07-29T04:57:33.649Z,70.52
2016-07-29T04:58:32.966Z,70.42
2016-07-29T04:59:24.945Z,70.27
2016-07-29T05:00:28.202Z,70.33
2016-07-29T05:01:33.742Z,70.29
2016-07-29T05:02:42.250Z,70.34
2016-07-29T05:03:30.420Z,70.20
2016-07-29T05:04:36.704Z,69.95
2016-07-29T05:05:37.918Z,69.83
2016-07-29T05:06:33.439Z,69.80
2016-07-29T05:07:33.340Z,69.56
2016-07-29T05:08:32.452Z,69.35
2016-07-29T05:09:20.899Z,69.41
2016-07-29T05:10:33.026Z,69.45
2016-07-29T05:11:33.032Z,69.58
2016-07-29T05:12:21.554Z,69.56
2016-07-29T05:13:32.233Z,69.50
2016-07-29T05:14:30.487Z,68.66
2016-07-29T05:15:26.325Z,69.40
2016-07-29T05:16:31.826Z,69.50
2016-07-29T05:17:27.471Z,69.45
2016-07-29T05:18:33.402Z,69.45
2016-07-29T05:19:30.870Z,69.43
2016-07-29T05:20:43.710Z,69.39
2016-07-29T05:21:43.043Z,69.42
2016-07-29T05:22:26.786Z,69.46
2016-07-29T05:23:37.285Z,69.53
2016-07-29T05:24:32.427Z,69.40
2016-07-29T05:25:33.351Z,69.38
2016-07-29T05:26:27.152Z,69.43
2016-07-29T05:27:37.508Z,69.42
2016-07-29T05:28:37.655Z,69.48
2016-07-29T05:29:32.858Z,69.61
2016-07-29T05:30:28.257Z,69.66
2016-07-29T05:31:33.502Z,69.71
2016-07-29T05:32:44.457Z,69.78
2016-07-29T05:33:31.534Z,69.76
2016-07-29T05:34:28.426Z,69.92
2016-07-29T05:35:32.038Z,69.85
2016-07-29T05:36:39.900Z,69.76
2016-07-29T05:37:32.516Z,69.84
2016-07-29T05:38:37.049Z,70.00
2016-07-29T05:39:38.637Z,70.09
2016-07-29T05:40:38.078Z,70.13
2016-07-29T05:41:28.512Z,69.98
2016-07-29T05:42:26.938Z,69.98
2016-07-29T05:43:33.286Z,70.16
2016-07-29T05:44:38.379Z,70.21
2016-07-29T05:45:27.015Z,70.18
2016-07-29T05:46:30.938Z,70.19
2016-07-29T05:47:41.221Z,69.11
2016-07-29T05:48:13.924Z,68.92
2016-07-29T05:49:43.767Z,68.77
2016-07-29T05:50:45.316Z,68.90
2016-07-29T05:51:34.528Z,68.79
2016-07-29T05:52:27.743Z,68.77
2016-07-29T05:53:33.780Z,68.68
2016-07-29T05:54:33.319Z,68.87
2016-07-29T05:55:37.250Z,69.14
2016-07-29T05:56:30.541Z,70.09
2016-07-29T05:57:36.843Z,70.31
2016-07-29T05:58:34.135Z,70.46
2016-07-29T05:59:38.264Z,70.60
2016-07-29T06:00:33.242Z,70.62
2016-07-29T06:01:40.219Z,70.64
2016-07-29T06:02:38.973Z,70.63
2016-07-29T06:03:40.642Z,70.61
2016-07-29T06:04:33.807Z,70.88
2016-07-29T06:05:32.814Z,70.81
2016-07-29T06:06:34.607Z,70.93
2016-07-29T06:07:31.426Z,70.73
2016-07-29T06:08:37.515Z,70.66
2016-07-29T06:09:31.049Z,70.74
2016-07-29T06:10:36.978Z,70.78
2016-07-29T06:11:32.016Z,70.94
2016-07-29T06:12:25.913Z,71.02
2016-07-29T06:13:39.392Z,70.72
2016-07-29T06:14:13.887Z,69.81
2016-07-29T06:15:28.768Z,69.89
2016-07-29T06:16:46.459Z,70.58
2016-07-29T06:17:46.708Z,70.84
2016-07-29T06:18:39.926Z,70.80
2016-07-29T06:19:35.845Z,70.99
2016-07-29T06:20:39.780Z,70.98
2016-07-29T06:21:39.007Z,70.86
2016-07-29T06:22:15.357Z,70.91
2016-07-29T06:23:32.814Z,70.98
2016-07-29T06:24:38.001Z,71.06
2016-07-29T06:25:33.835Z,71.06
2016-07-29T06:26:39.708Z,71.03
2016-07-29T06:27:38.656Z,71.21
2016-07-29T06:28:44.470Z,71.46
2016-07-29T06:29:38.356Z,71.44
2016-07-29T06:30:36.206Z,71.41
2016-07-29T06:31:37.362Z,71.23
2016-07-29T06:32:39.725Z,71.36
2016-07-29T06:34:31.220Z,71.26
2016-07-29T06:35:32.092Z,71.17
2016-07-29T06:36:37.540Z,71.25
2016-07-29T06:37:32.862Z,71.30
2016-07-29T06:38:33.251Z,71.24
2016-07-29T06:39:36.966Z,71.12
2016-07-29T06:40:33.411Z,71.09
2016-07-29T06:41:36.469Z,70.92
2016-07-29T06:42:32.643Z,70.90
2016-07-29T06:43:33.019Z,70.82
2016-07-29T06:44:43.600Z,70.86
2016-07-29T06:45:36.278Z,70.82
2016-07-29T06:46:39.716Z,70.93
2016-07-29T06:47:39.278Z,70.70
2016-07-29T06:48:46.239Z,70.80
2016-07-29T06:50:33.338Z,70.80
2016-07-29T06:51:26.155Z,70.77
2016-07-29T06:52:13.606Z,70.76
2016-07-29T06:53:33.044Z,70.94
2016-07-29T06:54:34.203Z,70.97
2016-07-29T06:55:37.876Z,70.96
2016-07-29T06:56:38.496Z,70.99
2016-07-29T06:57:33.946Z,70.87
2016-07-29T06:58:25.562Z,70.73
2016-07-29T06:59:33.487Z,70.70
2016-07-29T07:00:32.865Z,70.74
2016-07-29T07:01:39.857Z,70.68
2016-07-29T07:02:27.802Z,70.75
2016-07-29T07:03:38.124Z,70.73
2016-07-29T07:04:41.627Z,70.78
2016-07-29T07:05:30.318Z,71.04
2016-07-29T07:06:13.370Z,71.15
2016-07-29T07:07:40.069Z,71.14
2016-07-29T07:08:21.875Z,71.09
2016-07-29T07:09:44.516Z,70.96
2016-07-29T07:10:33.674Z,71.13
2016-07-29T07:11:14.822Z,71.16
2016-07-29T07:12:37.780Z,71.07
2016-07-29T07:13:38.200Z,71.07
2016-07-29T07:14:24.974Z,70.82
2016-07-29T07:15:13.176Z,71.82
2016-07-29T07:16:16.411Z,70.66
2016-07-29T07:17:25.290Z,72.06
2016-07-29T07:18:38.455Z,71.81
2016-07-29T07:19:42.119Z,71.36
2016-07-29T07:20:34.729Z,71.01
2016-07-29T07:21:27.263Z,70.44
2016-07-29T07:23:07.871Z,69.98
2016-07-29T07:23:27.359Z,70.16
2016-07-29T07:23:31.624Z,70.38
2016-07-29T07:23:36.559Z,70.42
2016-07-29T07:23:43.344Z,70.06
2016-07-29T07:23:43.931Z,70.08
2016-07-29T07:24:27.167Z,69.89
2016-07-29T07:25:52.562Z,69.99
2016-07-29T07:26:15.089Z,69.89
2016-07-29T07:27:32.800Z,70.28
2016-07-29T07:28:13.417Z,70.94
2016-07-29T07:29:15.221Z,71.22
2016-07-29T07:30:44.517Z,71.26
2016-07-29T07:31:32.262Z,71.35
2016-07-29T07:32:13.256Z,70.99
2016-07-29T07:33:36.362Z,69.94
2016-07-29T07:34:11.318Z,69.76
2016-07-29T07:35:39.623Z,69.58
2016-07-29T07:36:26.458Z,69.38
2016-07-29T07:37:35.637Z,69.35
2016-07-29T07:38:44.150Z,70.35
2016-07-29T07:39:13.394Z,70.63
2016-07-29T07:40:31.328Z,70.69
2016-07-29T07:41:49.139Z,70.74
2016-07-29T07:42:37.018Z,70.72
2016-07-29T07:43:38.542Z,70.55
2016-07-29T07:44:38.522Z,70.72
2016-07-29T07:45:49.373Z,70.65
2016-07-29T07:46:14.681Z,70.61
2016-07-29T07:47:13.323Z,70.58
2016-07-29T07:48:44.668Z,70.58
2016-07-29T07:49:14.516Z,70.47
2016-07-29T07:50:35.681Z,70.47
2016-07-29T07:51:41.319Z,70.43
2016-07-29T07:52:30.405Z,70.41
2016-07-29T07:53:18.548Z,70.36
2016-07-29T07:54:36.655Z,70.28
2016-07-29T07:55:25.983Z,70.35
2016-07-29T07:56:14.410Z,70.25
2016-07-29T07:57:33.394Z,70.23
2016-07-29T07:58:41.888Z,70.22
2016-07-29T07:59:50.191Z,70.17
2016-07-29T08:00:38.505Z,70.09
2016-07-29T08:01:21.272Z,70.08
2016-07-29T08:02:19.249Z,70.08
2016-07-29T08:03:13.574Z,70.00
2016-07-29T08:04:38.941Z,69.97
2016-07-29T08:05:27.277Z,70.01
2016-07-29T08:06:31.695Z,69.90
2016-07-29T08:07:49.395Z,69.90
2016-07-29T08:08:32.232Z,69.91
2016-07-29T08:09:38.399Z,69.87
2016-07-29T08:10:36.144Z,69.79
2016-07-29T08:11:50.935Z,69.78
2016-07-29T08:12:14.727Z,69.77
2016-07-29T08:13:42.729Z,69.81
2016-07-29T08:14:27.080Z,69.69
2016-07-29T08:15:51.244Z,69.68
2016-07-29T08:16:12.413Z,69.63
2016-07-29T08:17:40.751Z,69.65
2016-07-29T08:19:18.420Z,69.55
2016-07-29T08:20:16.034Z,69.53
2016-07-29T08:21:13.415Z,69.42
2016-07-29T08:22:32.396Z,69.42
2016-07-29T08:23:32.353Z,69.36
2016-07-29T08:24:21.693Z,69.36
2016-07-29T08:25:33.351Z,69.34
2016-07-29T08:26:13.293Z,69.33
2016-07-29T08:27:33.184Z,69.26
2016-07-29T08:28:14.813Z,69.23
2016-07-29T08:29:41.571Z,68.96
2016-07-29T08:30:42.196Z,68.38
2016-07-29T08:31:25.336Z,68.97
2016-07-29T08:32:44.542Z,69.07
2016-07-29T08:33:15.880Z,69.13
2016-07-29T08:34:17.552Z,69.14
2016-07-29T08:35:27.967Z,69.16
2016-07-29T08:36:12.666Z,69.17
2016-07-29T08:37:14.306Z,69.14
2016-07-29T08:38:13.047Z,69.15
2016-07-29T08:39:15.428Z,69.15
2016-07-29T08:40:15.639Z,69.14
2016-07-29T08:41:18.672Z,69.13
2016-07-29T08:42:16.599Z,69.10
2016-07-29T08:43:16.527Z,69.11
2016-07-29T08:44:16.467Z,69.10
2016-07-29T08:45:17.315Z,69.11
2016-07-29T08:46:16.667Z,69.10
2016-07-29T08:47:16.190Z,69.08
2016-07-29T08:48:16.856Z,69.07
2016-07-29T08:49:15.919Z,69.02
2016-07-29T08:50:17.500Z,69.02
2016-07-29T08:51:16.749Z,69.00
2016-07-29T08:52:17.868Z,69.05
2016-07-29T08:53:17.424Z,69.02
2016-07-29T08:54:16.754Z,69.01
2016-07-29T08:55:16.876Z,68.99
2016-07-29T08:56:38.771Z,69.00
2016-07-29T08:57:13.570Z,68.97
2016-07-29T08:58:43.426Z,68.96
2016-07-29T08:59:22.587Z,68.94
2016-07-29T09:00:12.969Z,68.93
2016-07-29T09:01:41.148Z,68.92
2016-07-29T09:02:12.170Z,68.91
2016-07-29T09:03:14.601Z,68.90
2016-07-29T09:04:12.895Z,68.88
2016-07-29T09:05:43.313Z,68.85
2016-07-29T09:06:13.324Z,68.84
2016-07-29T09:07:32.154Z,68.82
2016-07-29T09:08:18.337Z,68.80
2016-07-29T09:09:12.559Z,68.79
2016-07-29T09:10:48.361Z,68.77
2016-07-29T09:11:41.626Z,68.72
2016-07-29T09:13:22.901Z,68.66
2016-07-29T09:14:46.516Z,68.65
2016-07-29T09:15:35.921Z,68.63
2016-07-29T09:16:43.267Z,68.58
2016-07-29T09:17:51.072Z,68.53
2016-07-29T09:18:13.063Z,68.50
2016-07-29T09:19:15.405Z,68.45
2016-07-29T09:20:33.619Z,68.43
2016-07-29T09:21:32.996Z,68.44
2016-07-29T09:22:29.198Z,68.43
2016-07-29T09:23:34.743Z,68.43
2016-07-29T09:24:33.575Z,68.42
2016-07-29T09:25:13.986Z,68.29
2016-07-29T09:26:31.880Z,67.34
2016-07-29T09:27:13.672Z,67.10
2016-07-29T09:28:43.704Z,67.41
2016-07-29T09:29:13.415Z,68.04
2016-07-29T09:30:14.992Z,68.21
2016-07-29T09:31:33.070Z,68.29
2016-07-29T09:32:44.647Z,68.34
2016-07-29T09:33:14.310Z,68.36
2016-07-29T09:34:35.328Z,68.38
2016-07-29T09:35:42.986Z,68.37
2016-07-29T09:36:12.538Z,68.39
2016-07-29T09:37:43.112Z,68.39
2016-07-29T09:38:28.679Z,68.38
2016-07-29T09:39:36.715Z,68.37
2016-07-29T09:40:43.773Z,68.40
2016-07-29T09:41:45.634Z,68.39
2016-07-29T09:42:55.055Z,68.38
2016-07-29T09:43:48.348Z,68.36
2016-07-29T09:44:37.123Z,68.36
2016-07-29T09:45:14.072Z,68.34
2016-07-29T09:46:27.365Z,68.33
2016-07-29T09:47:31.566Z,68.31
2016-07-29T09:48:12.921Z,68.30
2016-07-29T09:49:11.817Z,68.30
2016-07-29T09:50:12.860Z,67.60
2016-07-29T09:51:13.592Z,68.07
2016-07-29T09:52:24.653Z,68.18
2016-07-29T09:53:26.048Z,68.21
2016-07-29T09:54:38.852Z,68.22
2016-07-29T09:55:13.382Z,68.21
2016-07-29T09:56:47.815Z,68.21
2016-07-29T09:57:35.725Z,68.20
2016-07-29T09:58:13.799Z,68.20
2016-07-29T09:59:38.772Z,68.20
2016-07-29T10:00:31.323Z,68.19
2016-07-29T10:01:43.124Z,68.22
2016-07-29T10:02:44.964Z,68.19
2016-07-29T10:03:20.515Z,68.19
2016-07-29T10:04:12.553Z,68.19
2016-07-29T10:05:42.074Z,68.19
2016-07-29T10:06:44.442Z,68.18
2016-07-29T10:07:34.015Z,68.17
2016-07-29T10:08:12.163Z,68.18
2016-07-29T10:09:21.002Z,68.15
2016-07-29T10:10:31.773Z,68.15
2016-07-29T10:11:32.190Z,68.15
2016-07-29T10:12:42.289Z,68.13
2016-07-29T10:13:19.664Z,68.16
2016-07-29T10:14:22.368Z,68.12
2016-07-29T10:15:23.385Z,68.12
2016-07-29T10:16:41.607Z,68.09
2016-07-29T10:17:14.442Z,68.10
2016-07-29T10:18:17.538Z,68.09
2016-07-29T10:19:38.789Z,68.07
2016-07-29T10:20:12.923Z,68.05
2016-07-29T10:21:42.308Z,68.03
2016-07-29T10:22:36.500Z,68.01
2016-07-29T10:23:31.715Z,67.93
2016-07-29T10:24:34.360Z,67.91
2016-07-29T10:25:39.389Z,67.91
2016-07-29T10:26:38.969Z,67.87
2016-07-29T10:27:11.911Z,67.87
2016-07-29T10:28:13.838Z,67.83
2016-07-29T10:29:29.410Z,67.81
2016-07-29T10:30:42.746Z,67.83
2016-07-29T10:31:12.924Z,67.85
2016-07-29T10:32:31.061Z,67.86
2016-07-29T10:33:31.570Z,67.84
2016-07-29T10:34:30.920Z,67.86
2016-07-29T10:35:14.244Z,67.86
2016-07-29T10:36:12.169Z,67.85
2016-07-29T10:37:13.040Z,67.87
2016-07-29T10:38:20.729Z,67.87
2016-07-29T10:39:35.132Z,67.87
2016-07-29T10:40:13.244Z,67.87
2016-07-29T10:41:37.224Z,67.86
2016-07-29T10:42:12.940Z,67.89
2016-07-29T10:43:37.403Z,67.86
2016-07-29T10:44:12.872Z,67.84
2016-07-29T10:45:33.393Z,67.86
2016-07-29T10:46:38.670Z,67.85
2016-07-29T10:47:44.832Z,67.83
2016-07-29T10:48:39.264Z,67.86
2016-07-29T10:49:32.529Z,67.79
2016-07-29T10:50:23.268Z,67.81
2016-07-29T10:51:44.855Z,67.77
2016-07-29T10:52:40.714Z,67.75
2016-07-29T10:53:40.260Z,67.72
2016-07-29T10:54:26.371Z,67.77
2016-07-29T10:55:32.683Z,67.69
2016-07-29T10:56:38.139Z,67.68
2016-07-29T10:57:37.955Z,67.68
2016-07-29T10:58:37.593Z,67.67
2016-07-29T10:59:30.164Z,67.66
2016-07-29T11:00:13.488Z,67.64
2016-07-29T11:01:34.704Z,67.64
2016-07-29T11:02:15.544Z,67.63
2016-07-29T11:03:14.347Z,67.62
2016-07-29T11:05:41.691Z,67.50
2016-07-29T11:06:29.525Z,67.53
2016-07-29T11:07:13.992Z,67.54
2016-07-29T11:08:14.900Z,67.49
2016-07-29T11:09:13.578Z,67.51
2016-07-29T11:10:23.075Z,66.41
2016-07-29T11:11:25.274Z,66.04
2016-07-29T11:12:15.185Z,66.05
2016-07-29T11:13:44.653Z,66.03
2016-07-29T11:14:40.161Z,66.15
2016-07-29T11:15:25.269Z,65.99
2016-07-29T11:16:18.627Z,65.93
2016-07-29T11:17:42.861Z,65.92
2016-07-29T11:18:43.938Z,65.86
2016-07-29T11:19:45.058Z,65.83
2016-07-29T11:20:34.214Z,66.06
2016-07-29T11:21:17.552Z,66.86
2016-07-29T11:22:32.293Z,67.03
2016-07-29T11:23:13.906Z,67.15
2016-07-29T11:24:13.724Z,67.19
2016-07-29T11:25:12.635Z,67.24
2016-07-29T11:26:37.708Z,67.24
2016-07-29T11:27:44.477Z,67.08
2016-07-29T11:28:12.678Z,66.25
2016-07-29T11:29:38.721Z,65.94
2016-07-29T11:30:40.811Z,65.86
2016-07-29T11:31:27.985Z,66.12
2016-07-29T11:32:11.167Z,66.83
2016-07-29T11:33:34.568Z,67.01
2016-07-29T11:34:54.792Z,67.18
2016-07-29T11:35:34.494Z,67.23
2016-07-29T11:36:13.572Z,67.24
2016-07-29T11:37:32.044Z,67.25
2016-07-29T11:38:15.160Z,67.23
2016-07-29T11:39:51.231Z,67.25
2016-07-29T11:40:27.022Z,67.22
2016-07-29T11:41:33.211Z,67.31
2016-07-29T11:42:28.370Z,67.25
2016-07-29T11:43:33.837Z,67.26
2016-07-29T11:44:37.105Z,67.28
2016-07-29T11:45:14.062Z,67.31
2016-07-29T11:46:28.286Z,67.30
2016-07-29T11:47:43.183Z,67.35
2016-07-29T11:48:25.884Z,67.29
2016-07-29T11:49:13.181Z,67.30
2016-07-29T11:50:28.342Z,67.30
2016-07-29T11:51:35.230Z,67.31
2016-07-29T11:52:26.801Z,67.30
2016-07-29T11:53:39.813Z,67.31
2016-07-29T11:54:49.942Z,67.28
2016-07-29T11:55:50.031Z,67.28
2016-07-29T11:56:28.734Z,67.26
2016-07-29T11:57:45.516Z,67.24
2016-07-29T11:58:47.891Z,67.19
2016-07-29T11:59:39.597Z,67.18
2016-07-29T12:00:28.107Z,67.16
2016-07-29T12:01:18.567Z,67.20
2016-07-29T12:02:37.124Z,67.23
2016-07-29T12:03:37.553Z,67.21
2016-07-29T12:04:40.415Z,67.18
2016-07-29T12:05:16.382Z,67.13
2016-07-29T12:06:44.197Z,67.19
2016-07-29T12:07:14.669Z,67.15
2016-07-29T12:08:12.917Z,67.13
2016-07-29T12:09:43.593Z,67.13
2016-07-29T12:10:12.780Z,67.13
2016-07-29T12:11:45.099Z,67.16
2016-07-29T12:12:34.850Z,67.20
2016-07-29T12:13:12.981Z,67.20
2016-07-29T12:14:14.225Z,67.21
2016-07-29T12:15:45.159Z,67.18
2016-07-29T12:16:26.801Z,67.17
2016-07-29T12:17:23.524Z,67.16
2016-07-29T12:18:13.698Z,67.13
2016-07-29T12:19:45.956Z,67.15
2016-07-29T12:20:45.894Z,67.11
2016-07-29T12:21:30.993Z,67.10
2016-07-29T12:22:37.711Z,67.09
2016-07-29T12:23:28.098Z,67.08
2016-07-29T12:24:44.959Z,67.07
2016-07-29T12:25:27.820Z,67.09
2016-07-29T12:26:44.453Z,67.07
2016-07-29T12:27:13.743Z,67.04
2016-07-29T12:28:16.368Z,67.05
2016-07-29T12:29:32.531Z,67.06
2016-07-29T12:30:18.755Z,67.01
2016-07-29T12:31:23.065Z,67.05
2016-07-29T12:32:12.664Z,67.02
2016-07-29T12:33:38.158Z,67.01
2016-07-29T12:34:43.660Z,67.03
2016-07-29T12:35:14.330Z,67.02
2016-07-29T12:36:12.232Z,67.02
2016-07-29T12:37:37.578Z,67.00
2016-07-29T12:38:13.751Z,67.01
2016-07-29T12:39:45.246Z,66.99
2016-07-29T12:40:21.341Z,66.98
2016-07-29T12:41:16.081Z,66.97
2016-07-29T12:42:44.515Z,66.95
2016-07-29T12:43:19.389Z,66.97
2016-07-29T12:44:31.031Z,66.91
2016-07-29T12:45:27.299Z,66.93
2016-07-29T12:46:45.321Z,66.91
2016-07-29T12:47:26.396Z,66.89
2016-07-29T12:48:29.090Z,66.89
2016-07-29T12:49:12.884Z,66.89
2016-07-29T12:50:15.456Z,66.90
2016-07-29T12:51:31.971Z,66.91
2016-07-29T12:52:18.377Z,66.89
2016-07-29T12:53:12.699Z,66.88
2016-07-29T12:54:32.300Z,66.93
2016-07-29T12:55:45.594Z,65.97
2016-07-29T12:56:13.043Z,65.68